Terminal Aerodrome Forecast
Issued by NWS Green Bay, WI

Home | Current Version | Previous Version | Text Only | Print | Product List | Glossary Off
Versions: 1 2 3 4 5 6 7 8 9 10 11 12 13 14 15 16 17 18 19 20 21 22 23 24 25 26 27 28 29 30 31 32 33 34 35

000
FTUS43 KGRB 260520
TAFGRB
TAF
KGRB 260520Z 2606/2706 20006KT 6SM BR VCSH SCT050 SCT100
      WS015/24040KT
     FM261000 20005KT 5SM BR SCT010 BKN200
      TEMPO 2610/2613 2SM BR BKN010
     FM261300 20009KT P6SM SCT040 BKN120
     FM261700 16011KT P6SM -SHRA BKN040 BKN080
     FM262200 12010KT 6SM -SHRA BKN025 OVC040
     FM270400 23008KT 5SM BR VCSH BKN012 OVC035=

USA.gov is the U.S. government's official web portal to all federal, state and local government web resources and services.